createdAt,value
2024-04-25T00:03:53.159Z,23.38
2024-04-25T00:08:59.068Z,23.46
2024-04-25T00:14:02.349Z,22.41
2024-04-25T00:19:08.065Z,22.76
2024-04-25T00:24:14.103Z,23.50
2024-04-25T00:29:17.328Z,24.04
2024-04-25T00:34:20.454Z,24.78
2024-04-25T00:39:26.438Z,24.32
2024-04-25T00:44:29.552Z,25.75
2024-04-25T00:49:33.680Z,25.40
2024-04-25T00:54:39.588Z,25.66
2024-04-25T00:59:45.210Z,26.43
2024-04-25T01:04:51.001Z,27.09
2024-04-25T01:09:56.953Z,27.79
2024-04-25T01:15:00.187Z,28.05
2024-04-25T01:20:03.799Z,27.88
2024-04-25T01:25:10.429Z,28.41
2024-04-25T01:30:14.062Z,28.99
2024-04-25T01:35:17.808Z,28.81
2024-04-25T01:40:23.742Z,29.83
2024-04-25T01:45:26.874Z,29.52
2024-04-25T01:50:30.018Z,29.64
2024-04-25T01:55:36.778Z,29.64
2024-04-25T02:00:40.024Z,30.15
2024-04-25T02:05:44.205Z,30.39
2024-04-25T02:10:50.464Z,30.63
2024-04-25T02:15:53.512Z,30.97
2024-04-25T02:20:56.995Z,31.28
2024-04-25T02:26:03.306Z,31.04
2024-04-25T02:31:06.438Z,30.97
2024-04-25T02:36:09.727Z,30.82
2024-04-25T02:41:15.755Z,30.25
2024-04-25T02:46:18.936Z,29.82
2024-04-25T02:51:22.072Z,29.83
2024-04-25T02:56:28.085Z,29.41
2024-04-25T03:01:31.214Z,29.91
2024-04-25T03:06:34.360Z,29.97
2024-04-25T03:11:40.385Z,29.78
2024-04-25T03:16:43.579Z,29.94
2024-04-25T03:21:47.271Z,30.81
2024-04-25T03:26:53.309Z,30.84
2024-04-25T03:31:56.398Z,31.68
2024-04-25T03:36:59.457Z,32.10
2024-04-25T03:42:05.576Z,32.70
2024-04-25T03:47:08.801Z,33.32
2024-04-25T03:52:11.971Z,33.69
2024-04-25T03:57:17.849Z,34.07
2024-04-25T04:02:21.083Z,34.37
2024-04-25T04:07:24.233Z,35.43
2024-04-25T04:12:30.123Z,35.84
2024-04-25T04:17:33.316Z,36.23
2024-04-25T04:22:36.924Z,36.29
2024-04-25T04:27:42.804Z,36.85
2024-04-25T04:32:45.967Z,36.71
2024-04-25T04:37:49.193Z,37.26
2024-04-25T04:42:55.329Z,37.51
2024-04-25T04:47:58.459Z,38.28
2024-04-25T04:53:01.653Z,38.13
2024-04-25T04:58:07.742Z,38.65
2024-04-25T05:06:14.827Z,38.75
2024-04-25T05:11:18.246Z,39.01
2024-04-25T05:16:21.404Z,39.53
2024-04-25T05:21:27.376Z,40.07
2024-04-25T05:26:30.761Z,40.12
2024-04-25T05:31:33.944Z,40.18
2024-04-25T05:36:39.856Z,39.54
2024-04-25T05:41:43.053Z,40.64
2024-04-25T05:46:46.213Z,40.84
2024-04-25T05:51:52.144Z,41.04
2024-04-25T05:56:55.356Z,41.12
2024-04-25T06:01:58.404Z,41.50
2024-04-25T06:07:04.551Z,41.75
2024-04-25T06:12:07.990Z,41.85
2024-04-25T06:17:12.672Z,41.66
2024-04-25T06:22:18.900Z,41.84
2024-04-25T06:27:22.160Z,41.38
2024-04-25T06:32:26.544Z,42.27
2024-04-25T06:37:32.709Z,42.62
2024-04-25T06:42:35.958Z,42.50
2024-04-25T06:47:39.691Z,42.77
2024-04-25T06:52:45.668Z,42.62
2024-04-25T06:57:48.757Z,42.83
2024-04-25T07:02:52.055Z,42.81
2024-04-25T07:07:58.553Z,43.13
2024-04-25T07:13:01.902Z,43.82
2024-04-25T07:18:05.467Z,44.11
2024-04-25T07:23:11.747Z,44.04
2024-04-25T07:28:14.872Z,44.75
2024-04-25T07:33:18.078Z,44.82
2024-04-25T07:38:24.178Z,44.67
2024-04-25T07:43:27.292Z,44.28
2024-04-25T07:48:30.557Z,44.52
2024-04-25T07:53:36.665Z,44.79
2024-04-25T07:58:39.836Z,45.06
2024-04-25T08:03:43.017Z,44.03
2024-04-25T08:08:49.336Z,45.44
2024-04-25T08:13:52.504Z,46.14
2024-04-25T08:18:56.133Z,46.34
2024-04-25T08:24:02.189Z,46.24
2024-04-25T08:29:05.423Z,46.77
2024-04-25T08:34:08.752Z,47.72
2024-04-25T08:39:14.771Z,47.39
2024-04-25T08:44:18.089Z,48.47
2024-04-25T08:49:22.455Z,48.08
2024-04-25T08:54:28.663Z,48.73
2024-04-25T08:59:31.795Z,49.27
2024-04-25T09:04:35.404Z,52.57
2024-04-25T09:09:41.515Z,57.20
2024-04-25T09:14:44.736Z,58.24
2024-04-25T09:19:47.938Z,59.80
2024-04-25T09:24:54.123Z,61.99
2024-04-25T09:29:57.772Z,61.25
2024-04-25T09:35:03.554Z,62.32
2024-04-25T09:40:11.603Z,62.06
2024-04-25T09:45:16.926Z,61.21
2024-04-25T09:50:27.896Z,61.28
2024-04-25T09:55:37.059Z,59.64
2024-04-25T10:00:41.356Z,60.37
2024-04-25T10:05:45.372Z,59.99
2024-04-25T10:10:52.214Z,61.14
2024-04-25T10:15:58.282Z,59.87
2024-04-25T10:21:03.008Z,60.70
2024-04-25T10:26:17.501Z,59.32
2024-04-25T10:31:20.698Z,59.97
2024-04-25T10:36:29.304Z,62.64
2024-04-25T10:41:39.819Z,61.09
2024-04-25T10:46:43.262Z,62.80
2024-04-25T10:51:46.487Z,62.87
2024-04-25T10:56:52.480Z,61.85
2024-04-25T11:01:59.837Z,61.37
2024-04-25T11:07:06.617Z,63.18
2024-04-25T11:12:14.040Z,61.53
2024-04-25T11:17:17.617Z,61.61
2024-04-25T11:27:29.942Z,62.51
2024-04-25T11:32:36.579Z,62.22
2024-04-25T11:37:43.587Z,62.83
2024-04-25T11:42:49.994Z,62.75
2024-04-25T11:47:53.347Z,61.05
2024-04-25T11:52:56.521Z,62.75
2024-04-25T11:58:02.580Z,60.54
2024-04-25T12:03:06.462Z,62.20
2024-04-25T12:08:09.552Z,60.39
2024-04-25T12:13:15.514Z,62.56
2024-04-25T12:18:18.738Z,59.44
2024-04-25T12:23:23.670Z,61.79
2024-04-25T12:28:32.639Z,61.16
2024-04-25T12:33:38.131Z,61.44
2024-04-25T12:38:41.308Z,61.47
2024-04-25T12:43:47.259Z,61.26
2024-04-25T12:48:50.546Z,61.90
2024-04-25T12:53:53.806Z,61.11
2024-04-25T12:58:59.711Z,61.60
2024-04-25T13:04:02.938Z,61.49
2024-04-25T13:09:06.321Z,61.88
2024-04-25T13:14:12.354Z,61.64
2024-04-25T13:19:15.823Z,61.51
2024-04-25T13:24:19.033Z,61.38
2024-04-25T13:29:25.074Z,61.46
2024-04-25T13:34:28.419Z,61.67
2024-04-25T13:39:31.641Z,61.98
2024-04-25T13:44:37.637Z,61.80
2024-04-25T13:49:40.747Z,62.42
2024-04-25T13:54:43.902Z,62.06
2024-04-25T13:59:49.887Z,62.32
2024-04-25T14:04:53.147Z,61.04
2024-04-25T14:09:56.233Z,62.77
2024-04-25T14:15:02.226Z,62.25
2024-04-25T14:20:07.628Z,62.37
2024-04-25T14:25:11.004Z,62.38
2024-04-25T14:30:17.046Z,63.15
2024-04-25T14:35:20.330Z,59.34
2024-04-25T14:40:23.908Z,64.68
2024-04-25T14:45:29.802Z,62.24
2024-04-25T14:50:32.996Z,62.86
2024-04-25T14:55:36.225Z,63.55
2024-04-25T15:00:42.163Z,60.79
2024-04-25T15:05:48.347Z,64.40
2024-04-25T15:10:51.512Z,66.47
2024-04-25T15:15:57.431Z,67.97
2024-04-25T15:21:00.922Z,70.18
2024-04-25T15:26:04.122Z,73.31
2024-04-25T15:31:10.278Z,73.03
2024-04-25T15:36:13.410Z,74.66
2024-04-25T15:41:16.813Z,73.86
2024-04-25T15:46:23.034Z,76.29
2024-04-25T15:51:26.117Z,76.92
2024-04-25T15:56:29.385Z,77.91
2024-04-25T16:01:35.410Z,77.64
2024-04-25T16:06:38.601Z,76.90
2024-04-25T16:11:41.831Z,78.40
2024-04-25T16:16:47.780Z,79.84
2024-04-25T16:21:57.359Z,81.66
2024-04-25T16:27:01.369Z,81.63
2024-04-25T16:32:08.551Z,78.90
2024-04-25T16:37:11.674Z,80.09
2024-04-25T16:42:15.045Z,82.21
2024-04-25T16:47:21.106Z,79.14
2024-04-25T16:52:24.480Z,81.48
2024-04-25T16:57:27.558Z,80.86
2024-04-25T17:02:33.564Z,81.30
2024-04-25T17:07:36.826Z,78.81
2024-04-25T17:12:39.973Z,79.42
2024-04-25T17:17:46.044Z,77.50
2024-04-25T17:22:49.179Z,72.82
2024-04-25T17:27:52.243Z,74.62
2024-04-25T17:32:58.285Z,69.00
2024-04-25T17:38:01.629Z,71.24
2024-04-25T17:43:05.048Z,72.02
2024-04-25T17:48:11.472Z,70.69
2024-04-25T17:53:14.741Z,72.72
2024-04-25T17:58:17.976Z,70.76
2024-04-25T18:03:23.924Z,69.57
2024-04-25T18:08:27.115Z,71.03
2024-04-25T18:13:30.242Z,66.47
2024-04-25T18:18:36.355Z,68.71
2024-04-25T18:23:39.641Z,65.58
2024-04-25T18:28:42.761Z,67.96
2024-04-25T18:33:48.760Z,67.28
2024-04-25T18:38:51.948Z,65.65
2024-04-25T18:43:55.334Z,63.80
2024-04-25T18:49:01.627Z,65.17
2024-04-25T18:54:04.983Z,62.09
2024-04-25T18:59:08.090Z,62.12
2024-04-25T19:04:14.205Z,63.54
2024-04-25T19:09:17.317Z,63.53
2024-04-25T19:14:20.400Z,66.26
2024-04-25T19:19:26.349Z,65.99
2024-04-25T19:24:29.425Z,62.65
2024-04-25T19:29:34.078Z,63.96
2024-04-25T19:34:41.249Z,64.21
2024-04-25T19:39:45.694Z,63.20
2024-04-25T19:44:48.895Z,62.75
2024-04-25T19:49:54.869Z,64.32
2024-04-25T19:54:58.763Z,65.40
2024-04-25T20:00:01.856Z,65.69
2024-04-25T20:05:08.035Z,67.24
2024-04-25T20:10:11.464Z,66.56
2024-04-25T20:15:14.599Z,67.06
2024-04-25T20:20:20.584Z,67.17
2024-04-25T20:25:23.772Z,66.51
2024-04-25T20:30:27.044Z,66.12
2024-04-25T20:35:32.967Z,65.44
2024-04-25T20:40:36.124Z,65.33
2024-04-25T20:45:39.713Z,62.94
2024-04-25T20:50:45.755Z,63.51
2024-04-25T20:55:48.947Z,63.25
2024-04-25T21:00:52.104Z,63.40
2024-04-25T21:05:59.062Z,65.06
2024-04-25T21:11:02.216Z,62.10
2024-04-25T21:16:05.851Z,62.88
2024-04-25T21:21:11.916Z,62.98
2024-04-25T21:26:15.173Z,62.93
2024-04-25T21:31:18.387Z,63.31
2024-04-25T21:36:24.450Z,64.77
2024-04-25T21:41:27.783Z,63.14
2024-04-25T21:46:31.481Z,64.00
2024-04-25T21:51:43.494Z,65.07
2024-04-25T21:56:46.787Z,65.57
2024-04-25T22:01:54.117Z,62.97
2024-04-25T22:07:00.055Z,64.45
2024-04-25T22:12:03.234Z,65.99
2024-04-25T22:17:06.591Z,64.99
2024-04-25T22:22:12.582Z,66.58
2024-04-25T22:27:16.280Z,66.12
2024-04-25T22:32:19.666Z,67.37
2024-04-25T22:37:25.668Z,66.87
2024-04-25T22:42:28.767Z,66.77
2024-04-25T22:47:32.326Z,66.50
2024-04-25T22:52:38.307Z,66.61
2024-04-25T22:57:41.419Z,67.76
2024-04-25T23:02:44.759Z,65.44
2024-04-25T23:07:50.821Z,67.38
2024-04-25T23:12:53.991Z,67.88
2024-04-25T23:17:57.183Z,67.49
2024-04-25T23:23:03.641Z,68.36
2024-04-25T23:28:07.246Z,68.79
2024-04-25T23:33:10.517Z,68.88
2024-04-25T23:38:16.640Z,69.38
2024-04-25T23:43:19.794Z,69.26
2024-04-25T23:48:23.902Z,70.87
2024-04-25T23:53:30.814Z,70.52
2024-04-25T23:58:34.026Z,71.10
